Time,TemperatureF,DewpointF,PressureIn,WindDirection,WindDirectionDegrees,WindSpeedMPH,WindSpeedGustMPH,Humidity,HourlyPrecipIn,Conditions,Clouds,dailyrainin,SoftwareType,DateUTC
2013-04-12 00:02:00,44.0,42.0,29.11,ESE,103,0.0,0.0,93,0.00,,,0.38,weatherlink.com 1.10,2013-04-11 23:02:00,
2013-04-12 00:17:00,43.9,42.0,29.11,ESE,103,0.0,0.0,93,0.00,,,0.38,weatherlink.com 1.10,2013-04-11 23:17:00,
2013-04-12 00:32:00,43.8,42.0,29.11,ESE,103,0.0,0.0,93,0.00,,,0.38,weatherlink.com 1.10,2013-04-11 23:32:00,
2013-04-12 00:47:00,43.8,42.0,29.11,ESE,103,0.0,0.0,93,0.00,,,0.38,weatherlink.com 1.10,2013-04-11 23:47:00,
2013-04-12 01:02:00,43.9,42.0,29.11,ESE,103,0.0,0.0,94,0.00,,,0.38,weatherlink.com 1.10,2013-04-12 00:02:00,
2013-04-12 01:17:00,44.0,42.0,29.11,ESE,103,0.0,0.0,94,0.00,,,0.38,weatherlink.com 1.10,2013-04-12 00:17:00,
2013-04-12 01:32:00,43.9,42.0,29.12,ESE,103,0.0,0.0,94,0.00,,,0.38,weatherlink.com 1.10,2013-04-12 00:32:00,
2013-04-12 01:47:00,43.9,42.0,29.12,ESE,103,0.0,0.0,94,0.00,,,0.38,weatherlink.com 1.10,2013-04-12 00:47:00,
2013-04-12 02:02:00,43.8,42.0,29.12,ESE,103,0.0,0.0,94,0.00,,,0.38,weatherlink.com 1.10,2013-04-12 01:02:00,
2013-04-12 02:17:00,43.8,42.0,29.12,ESE,103,0.0,0.0,94,0.00,,,0.38,weatherlink.com 1.10,2013-04-12 01:17:00,
2013-04-12 02:32:00,43.9,42.0,29.12,ESE,103,0.0,0.0,94,0.00,,,0.00,weatherlink.com 1.10,2013-04-12 01:32:00,
2013-04-12 02:47:00,43.9,43.0,29.12,ESE,103,0.0,0.0,95,0.00,,,0.00,weatherlink.com 1.10,2013-04-12 01:47:00,
2013-04-12 03:02:00,43.9,43.0,29.12,ESE,103,0.0,0.0,95,0.00,,,0.00,weatherlink.com 1.10,2013-04-12 02:02:00,
2013-04-12 03:17:00,43.2,42.0,29.12,ESE,103,0.0,0.0,94,0.00,,,0.00,weatherlink.com 1.10,2013-04-12 02:17:00,
2013-04-12 03:32:00,42.9,42.0,29.13,West,262,0.0,0.0,95,0.00,,,0.00,weatherlink.com 1.10,2013-04-12 02:32:00,
2013-04-12 03:47:00,42.5,41.0,29.13,SW,219,0.0,1.0,95,0.00,,,0.00,weatherlink.com 1.10,2013-04-12 02:47:00,
2013-04-12 04:02:00,42.4,41.0,29.13,SW,215,0.0,1.0,95,0.00,,,0.00,weatherlink.com 1.10,2013-04-12 03:02:00,
2013-04-12 04:17:00,42.4,41.0,29.13,WNW,291,1.0,2.0,95,0.00,,,0.00,weatherlink.com 1.10,2013-04-12 03:17:00,
2013-04-12 04:32:00,42.7,41.0,29.14,WNW,284,1.0,2.0,95,0.00,,,0.00,weatherlink.com 1.10,2013-04-12 03:32:00,
2013-04-12 04:47:00,43.0,42.0,29.14,WSW,256,3.0,6.0,95,0.00,,,0.00,weatherlink.com 1.10,2013-04-12 03:47:00,
2013-04-12 05:02:00,42.9,42.0,29.14,WSW,243,0.0,4.0,95,0.00,,,0.00,weatherlink.com 1.10,2013-04-12 04:02:00,
2013-04-12 05:17:00,42.7,41.0,29.15,West,259,2.0,4.0,95,0.00,,,0.00,weatherlink.com 1.10,2013-04-12 04:17:00,
2013-04-12 05:32:00,42.6,41.0,29.15,WNW,291,5.0,5.0,95,0.00,,,0.00,weatherlink.com 1.10,2013-04-12 04:32:00,
2013-04-12 05:47:00,42.6,42.0,29.16,WSW,256,0.0,6.0,96,0.00,,,0.00,weatherlink.com 1.10,2013-04-12 04:47:00,
2013-04-12 06:02:00,42.7,42.0,29.16,SSE,160,1.0,3.0,96,0.00,,,0.00,weatherlink.com 1.10,2013-04-12 05:02:00,
2013-04-12 06:17:00,42.6,42.0,29.17,West,266,2.0,5.0,96,0.00,,,0.00,weatherlink.com 1.10,2013-04-12 05:17:00,
2013-04-12 06:32:00,42.5,42.0,29.17,West,276,1.0,5.0,96,0.00,,,0.00,weatherlink.com 1.10,2013-04-12 05:32:00,
2013-04-12 06:48:00,42.4,41.0,29.18,WNW,283,2.0,6.0,96,0.00,,,0.00,weatherlink.com 1.10,2013-04-12 05:48:00,
2013-04-12 07:02:00,42.3,41.0,29.18,WNW,289,1.0,6.0,95,0.00,,,0.00,weatherlink.com 1.10,2013-04-12 06:02:00,
2013-04-12 07:17:00,42.2,41.0,29.19,NE,53,2.0,6.0,95,0.00,,,0.00,weatherlink.com 1.10,2013-04-12 06:17:00,
2013-04-12 07:33:00,42.0,41.0,29.20,North,9,4.0,4.0,95,0.00,,,0.00,weatherlink.com 1.10,2013-04-12 06:33:00,
2013-04-12 07:48:00,41.8,41.0,29.20,WNW,295,3.0,6.0,95,0.00,,,0.00,weatherlink.com 1.10,2013-04-12 06:48:00,
2013-04-12 08:03:00,41.7,40.0,29.21,North,8,2.0,5.0,95,0.00,,,0.00,weatherlink.com 1.10,2013-04-12 07:03:00,
2013-04-12 08:18:00,41.7,40.0,29.22,WNW,290,5.0,6.0,95,0.00,,,0.00,weatherlink.com 1.10,2013-04-12 07:18:00,
2013-04-12 08:33:00,41.3,40.0,29.22,West,277,3.0,7.0,94,0.00,,,0.00,weatherlink.com 1.10,2013-04-12 07:33:00,
2013-04-12 08:48:00,41.5,40.0,29.22,WSW,249,5.0,8.0,94,0.00,,,0.00,weatherlink.com 1.10,2013-04-12 07:48:00,
2013-04-12 09:03:00,42.5,41.0,29.23,WSW,252,4.0,7.0,94,0.00,,,0.00,weatherlink.com 1.10,2013-04-12 08:03:00,
2013-04-12 09:18:00,43.0,41.0,29.23,WSW,252,6.0,7.0,92,0.00,,,0.00,weatherlink.com 1.10,2013-04-12 08:18:00,
2013-04-12 09:33:00,43.8,41.0,29.23,WSW,240,4.0,7.0,91,0.00,,,0.00,weatherlink.com 1.10,2013-04-12 08:33:00,
2013-04-12 09:48:00,44.4,41.0,29.24,West,276,3.0,8.0,89,0.00,,,0.00,weatherlink.com 1.10,2013-04-12 08:48:00,
2013-04-12 10:03:00,45.3,42.0,29.25,WSW,243,5.0,7.0,87,0.00,,,0.00,weatherlink.com 1.10,2013-04-12 09:03:00,
2013-04-12 10:18:00,46.2,42.0,29.25,WSW,256,5.0,10.0,86,0.00,,,0.00,weatherlink.com 1.10,2013-04-12 09:18:00,
2013-04-12 10:33:00,47.2,43.0,29.25,ENE,60,2.0,10.0,85,0.00,,,0.00,weatherlink.com 1.10,2013-04-12 09:33:00,
2013-04-12 10:48:00,47.7,43.0,29.26,WNW,293,2.0,10.0,84,0.00,,,0.00,weatherlink.com 1.10,2013-04-12 09:48:00,
2013-04-12 11:03:00,48.3,43.0,29.27,West,263,4.0,8.0,82,0.00,,,0.00,weatherlink.com 1.10,2013-04-12 10:03:00,
2013-04-12 11:18:00,48.1,43.0,29.27,WNW,291,4.0,9.0,82,0.00,,,0.00,weatherlink.com 1.10,2013-04-12 10:18:00,
2013-04-12 11:33:00,48.9,44.0,29.27,West,274,3.0,8.0,82,0.00,,,0.00,weatherlink.com 1.10,2013-04-12 10:33:00,
2013-04-12 11:49:00,49.3,43.0,29.28,SW,226,5.0,10.0,80,0.00,,,0.00,weatherlink.com 1.10,2013-04-12 10:49:00,
2013-04-12 12:04:00,49.1,43.0,29.28,West,267,2.0,7.0,80,0.00,,,0.00,weatherlink.com 1.10,2013-04-12 11:04:00,
2013-04-12 12:19:00,49.2,43.0,29.29,West,263,5.0,8.0,80,0.00,,,0.00,weatherlink.com 1.10,2013-04-12 11:19:00,
2013-04-12 12:34:00,48.6,43.0,29.29,West,277,5.0,8.0,80,0.00,,,0.00,weatherlink.com 1.10,2013-04-12 11:34:00,
2013-04-12 12:49:00,48.8,42.0,29.30,WSW,246,5.0,12.0,78,0.00,,,0.00,weatherlink.com 1.10,2013-04-12 11:49:00,
2013-04-12 13:04:00,49.0,42.0,29.31,WNW,290,2.0,9.0,78,0.00,,,0.00,weatherlink.com 1.10,2013-04-12 12:04:00,
2013-04-12 13:19:00,48.6,42.0,29.32,WSW,250,2.0,10.0,77,0.00,,,0.00,weatherlink.com 1.10,2013-04-12 12:19:00,
2013-04-12 13:34:00,48.6,42.0,29.32,NNE,32,5.0,11.0,79,0.00,,,0.00,weatherlink.com 1.10,2013-04-12 12:34:00,
2013-04-12 13:49:00,49.0,42.0,29.32,West,262,4.0,9.0,78,0.00,,,0.00,weatherlink.com 1.10,2013-04-12 12:49:00,
2013-04-12 14:04:00,49.6,42.0,29.33,South,190,2.0,7.0,76,0.00,,,0.00,weatherlink.com 1.10,2013-04-12 13:04:00,
2013-04-12 14:19:00,49.5,42.0,29.33,WNW,293,6.0,10.0,75,0.00,,,0.00,weatherlink.com 1.10,2013-04-12 13:19:00,
2013-04-12 14:34:00,49.6,42.0,29.34,WSW,240,2.0,10.0,75,0.00,,,0.00,weatherlink.com 1.10,2013-04-12 13:34:00,
2013-04-12 14:49:00,50.4,43.0,29.34,SW,224,3.0,9.0,75,0.00,,,0.00,weatherlink.com 1.10,2013-04-12 13:49:00,
2013-04-12 15:19:00,51.4,42.0,29.35,WNW,285,4.0,9.0,71,0.00,,,0.00,weatherlink.com 1.10,2013-04-12 14:19:00,
2013-04-12 15:34:00,52.9,43.0,29.35,SW,222,4.0,9.0,69,0.00,,,0.00,weatherlink.com 1.10,2013-04-12 14:34:00,
2013-04-12 15:49:00,52.2,42.0,29.35,WNW,288,4.0,7.0,68,0.00,,,0.00,weatherlink.com 1.10,2013-04-12 14:49:00,
2013-04-12 16:04:00,52.5,42.0,29.36,WSW,249,2.0,6.0,68,0.00,,,0.00,weatherlink.com 1.10,2013-04-12 15:04:00,
2013-04-12 16:19:00,51.7,42.0,29.36,WSW,245,2.0,7.0,70,0.00,,,0.00,weatherlink.com 1.10,2013-04-12 15:19:00,
2013-04-12 16:34:00,52.8,42.0,29.37,NW,308,3.0,5.0,68,0.00,,,0.00,weatherlink.com 1.10,2013-04-12 15:34:00,
2013-04-12 16:49:00,53.8,43.0,29.37,WNW,284,2.0,8.0,66,0.00,,,0.00,weatherlink.com 1.10,2013-04-12 15:49:00,
2013-04-12 17:04:00,53.3,43.0,29.38,North,349,7.0,12.0,67,0.00,,,0.00,weatherlink.com 1.10,2013-04-12 16:04:00,
2013-04-12 17:19:00,53.9,43.0,29.39,SW,232,1.0,6.0,66,0.00,,,0.00,weatherlink.com 1.10,2013-04-12 16:19:00,
2013-04-12 17:34:00,53.7,42.0,29.39,West,276,3.0,6.0,64,0.00,,,0.00,weatherlink.com 1.10,2013-04-12 16:34:00,
2013-04-12 17:49:00,53.6,42.0,29.40,West,260,0.0,6.0,64,0.00,,,0.00,weatherlink.com 1.10,2013-04-12 16:49:00,
2013-04-12 18:05:00,53.0,41.0,29.41,SW,226,2.0,8.0,65,0.00,,,0.00,weatherlink.com 1.10,2013-04-12 17:05:00,
2013-04-12 18:19:00,52.8,41.0,29.41,NNE,22,6.0,8.0,65,0.00,,,0.00,weatherlink.com 1.10,2013-04-12 17:19:00,
2013-04-12 18:34:00,52.7,42.0,29.42,NNW,345,1.0,8.0,66,0.00,,,0.00,weatherlink.com 1.10,2013-04-12 17:34:00,
2013-04-12 18:49:00,52.5,42.0,29.42,NNW,332,3.0,-999.0,67,-99.99,,,0.00,weatherlink.com 1.10,2013-04-12 17:49:00,
2013-04-12 19:20:00,51.3,40.0,29.43,North,349,1.0,2.0,66,0.00,,,0.00,weatherlink.com 1.10,2013-04-12 18:20:00,
2013-04-12 20:35:00,47.3,41.0,29.46,ESE,113,6.0,7.0,78,0.00,,,0.00,weatherlink.com 1.10,2013-04-12 19:35:00,
2013-04-12 20:50:00,46.7,41.0,29.47,SE,127,4.0,7.0,80,0.00,,,0.00,weatherlink.com 1.10,2013-04-12 19:50:00,
2013-04-12 21:05:00,46.4,41.0,29.48,ESE,121,3.0,4.0,82,0.00,,,0.00,weatherlink.com 1.10,2013-04-12 20:05:00,
2013-04-12 21:20:00,46.3,41.0,29.48,East,91,2.0,4.0,82,0.00,,,0.00,weatherlink.com 1.10,2013-04-12 20:20:00,
2013-04-12 21:35:00,46.4,41.0,29.49,ESE,108,1.0,2.0,82,0.00,,,0.00,weatherlink.com 1.10,2013-04-12 20:35:00,
2013-04-12 21:50:00,46.3,42.0,29.50,ESE,110,0.0,2.0,84,0.00,,,0.00,weatherlink.com 1.10,2013-04-12 20:50:00,
2013-04-12 22:05:00,45.9,42.0,29.50,ESE,117,0.0,3.0,86,0.01,,,0.01,weatherlink.com 1.10,2013-04-12 21:05:00,
2013-04-12 22:20:00,45.6,42.0,29.51,ESE,121,1.0,3.0,87,0.02,,,0.02,weatherlink.com 1.10,2013-04-12 21:20:00,
2013-04-12 22:35:00,45.3,42.0,29.51,East,99,1.0,2.0,88,0.02,,,0.02,weatherlink.com 1.10,2013-04-12 21:35:00,
2013-04-12 22:50:00,45.0,42.0,29.51,ESE,103,2.0,2.0,89,0.02,,,0.02,weatherlink.com 1.10,2013-04-12 21:50:00,
2013-04-12 23:05:00,44.7,42.0,29.51,ESE,115,0.0,2.0,90,0.01,,,0.02,weatherlink.com 1.10,2013-04-12 22:05:00,
2013-04-12 23:20:00,44.4,42.0,29.52,East,101,1.0,2.0,90,0.00,,,0.02,weatherlink.com 1.10,2013-04-12 22:20:00,
2013-04-12 23:35:00,44.3,42.0,29.52,ESE,107,1.0,2.0,91,0.00,,,0.02,weatherlink.com 1.10,2013-04-12 22:35:00,
2013-04-12 23:50:00,44.1,42.0,29.52,East,96,1.0,2.0,91,0.00,,,0.02,weatherlink.com 1.10,2013-04-12 22:50:00,